sensor_id;sensor_type;location;lat;lon;timestamp;pressure;altitude;pressure_sealevel;temperature;humidity
72721;BME280;60835;50.974;10.322;2023-02-22T00:01:13;97339.47;;;8.99;100.00
72721;BME280;60835;50.974;10.322;2023-02-22T00:03:58;97347.50;;;9.06;100.00
72721;BME280;60835;50.974;10.322;2023-02-22T00:06:25;97351.69;;;8.92;100.00
72721;BME280;60835;50.974;10.322;2023-02-22T00:08:52;97348.59;;;8.89;100.00
72721;BME280;60835;50.974;10.322;2023-02-22T00:11:18;97345.75;;;8.90;100.00
72721;BME280;60835;50.974;10.322;2023-02-22T00:13:46;97337.22;;;8.88;100.00
72721;BME280;60835;50.974;10.322;2023-02-22T00:16:14;97347.25;;;8.85;100.00
72721;BME280;60835;50.974;10.322;2023-02-22T00:18:41;97323.22;;;8.80;100.00
72721;BME280;60835;50.974;10.322;2023-02-22T00:21:11;97312.00;;;8.86;100.00
72721;BME280;60835;50.974;10.322;2023-02-22T00:23:41;97305.41;;;8.82;100.00
72721;BME280;60835;50.974;10.322;2023-02-22T00:26:14;97294.84;;;8.82;100.00
72721;BME280;60835;50.974;10.322;2023-02-22T00:28:48;97293.91;;;8.75;100.00
72721;BME280;60835;50.974;10.322;2023-02-22T00:31:15;97276.09;;;8.77;100.00
72721;BME280;60835;50.974;10.322;2023-02-22T00:33:43;97289.31;;;8.69;100.00
72721;BME280;60835;50.974;10.322;2023-02-22T00:36:11;97272.16;;;8.73;100.00
72721;BME280;60835;50.974;10.322;2023-02-22T00:38:38;97267.56;;;8.67;100.00
72721;BME280;60835;50.974;10.322;2023-02-22T00:41:05;97246.78;;;8.72;100.00
72721;BME280;60835;50.974;10.322;2023-02-22T00:43:33;97240.22;;;8.68;100.00
72721;BME280;60835;50.974;10.322;2023-02-22T00:45:59;97228.28;;;8.80;100.00
72721;BME280;60835;50.974;10.322;2023-02-22T00:48:26;97225.94;;;8.85;100.00
72721;BME280;60835;50.974;10.322;2023-02-22T00:50:53;97225.94;;;8.85;100.00
72721;BME280;60835;50.974;10.322;2023-02-22T00:53:24;97223.31;;;8.85;100.00
72721;BME280;60835;50.974;10.322;2023-02-22T00:55:52;97237.50;;;8.84;100.00
72721;BME280;60835;50.974;10.322;2023-02-22T00:58:20;97219.50;;;8.87;100.00
72721;BME280;60835;50.974;10.322;2023-02-22T01:00:46;97225.28;;;8.91;100.00
72721;BME280;60835;50.974;10.322;2023-02-22T01:03:16;97225.53;;;8.73;100.00
72721;BME280;60835;50.974;10.322;2023-02-22T01:05:44;97225.91;;;8.93;100.00
72721;BME280;60835;50.974;10.322;2023-02-22T01:08:12;97237.09;;;8.95;100.00
72721;BME280;60835;50.974;10.322;2023-02-22T01:10:39;97245.44;;;8.84;100.00
72721;BME280;60835;50.974;10.322;2023-02-22T01:13:07;97248.09;;;8.76;100.00
72721;BME280;60835;50.974;10.322;2023-02-22T01:15:38;97240.03;;;8.69;100.00
72721;BME280;60835;50.974;10.322;2023-02-22T01:18:05;97227.59;;;8.86;100.00
72721;BME280;60835;50.974;10.322;2023-02-22T01:20:32;97244.13;;;8.72;100.00
72721;BME280;60835;50.974;10.322;2023-02-22T01:23:00;97239.19;;;8.77;100.00
72721;BME280;60835;50.974;10.322;2023-02-22T01:25:30;97232.25;;;8.84;100.00
72721;BME280;60835;50.974;10.322;2023-02-22T01:27:58;97230.25;;;8.86;100.00
72721;BME280;60835;50.974;10.322;2023-02-22T01:30:28;97255.00;;;8.77;100.00
72721;BME280;60835;50.974;10.322;2023-02-22T01:32:55;97250.91;;;8.66;100.00
72721;BME280;60835;50.974;10.322;2023-02-22T01:35:25;97250.47;;;8.63;100.00
72721;BME280;60835;50.974;10.322;2023-02-22T01:37:53;97245.84;;;8.65;100.00
72721;BME280;60835;50.974;10.322;2023-02-22T01:40:50;97235.97;;;8.58;100.00
72721;BME280;60835;50.974;10.322;2023-02-22T01:43:25;97215.03;;;8.65;100.00
72721;BME280;60835;50.974;10.322;2023-02-22T01:48:28;97226.25;;;8.59;100.00
72721;BME280;60835;50.974;10.322;2023-02-22T01:53:32;97216.59;;;8.43;100.00
72721;BME280;60835;50.974;10.322;2023-02-22T01:56:00;97222.16;;;8.48;100.00
72721;BME280;60835;50.974;10.322;2023-02-22T01:58:29;97224.03;;;8.32;100.00
72721;BME280;60835;50.974;10.322;2023-02-22T02:00:57;97210.03;;;8.31;100.00
72721;BME280;60835;50.974;10.322;2023-02-22T02:03:28;97209.69;;;8.26;100.00
72721;BME280;60835;50.974;10.322;2023-02-22T02:05:59;97197.69;;;8.16;100.00
72721;BME280;60835;50.974;10.322;2023-02-22T02:08:32;97168.56;;;8.17;100.00
72721;BME280;60835;50.974;10.322;2023-02-22T02:11:06;97154.03;;;8.21;100.00
72721;BME280;60835;50.974;10.322;2023-02-22T02:13:35;97143.53;;;8.13;100.00
72721;BME280;60835;50.974;10.322;2023-02-22T02:16:02;97141.09;;;8.12;100.00
72721;BME280;60835;50.974;10.322;2023-02-22T02:18:28;97114.25;;;8.08;100.00
72721;BME280;60835;50.974;10.322;2023-02-22T02:37:35;97031.91;;;7.91;100.00
72721;BME280;60835;50.974;10.322;2023-02-22T02:40:30;97002.69;;;8.01;100.00
72721;BME280;60835;50.974;10.322;2023-02-22T02:43:11;96978.16;;;8.01;100.00
72721;BME280;60835;50.974;10.322;2023-02-22T02:45:47;96986.47;;;7.89;100.00
72721;BME280;60835;50.974;10.322;2023-02-22T02:48:20;96969.50;;;7.92;100.00
72721;BME280;60835;50.974;10.322;2023-02-22T02:50:50;96952.56;;;7.86;100.00
72721;BME280;60835;50.974;10.322;2023-02-22T02:53:20;96937.75;;;7.93;100.00
72721;BME280;60835;50.974;10.322;2023-02-22T02:55:47;96930.53;;;7.87;100.00
72721;BME280;60835;50.974;10.322;2023-02-22T02:58:21;96906.88;;;7.79;100.00
72721;BME280;60835;50.974;10.322;2023-02-22T03:00:51;96887.91;;;7.84;100.00
72721;BME280;60835;50.974;10.322;2023-02-22T03:03:58;96873.78;;;7.85;100.00
72721;BME280;60835;50.974;10.322;2023-02-22T03:06:47;96857.63;;;7.88;100.00
72721;BME280;60835;50.974;10.322;2023-02-22T03:09:29;96841.34;;;7.84;100.00
72721;BME280;60835;50.974;10.322;2023-02-22T03:12:21;96813.44;;;7.98;100.00
72721;BME280;60835;50.974;10.322;2023-02-22T03:15:18;96828.47;;;7.89;100.00
72721;BME280;60835;50.974;10.322;2023-02-22T03:17:55;96815.59;;;7.94;100.00
72721;BME280;60835;50.974;10.322;2023-02-22T03:20:52;96812.13;;;8.02;100.00
72721;BME280;60835;50.974;10.322;2023-02-22T03:23:32;96814.09;;;8.00;100.00
72721;BME280;60835;50.974;10.322;2023-02-22T03:26:04;96823.00;;;7.99;100.00
72721;BME280;60835;50.974;10.322;2023-02-22T03:28:34;96837.25;;;7.82;100.00
72721;BME280;60835;50.974;10.322;2023-02-22T03:31:10;96831.66;;;7.85;100.00
72721;BME280;60835;50.974;10.322;2023-02-22T03:33:45;96815.09;;;7.99;100.00
72721;BME280;60835;50.974;10.322;2023-02-22T03:38:44;96823.22;;;7.89;100.00
72721;BME280;60835;50.974;10.322;2023-02-22T03:41:12;96819.41;;;7.92;100.00
72721;BME280;60835;50.974;10.322;2023-02-22T03:43:46;96822.16;;;7.76;100.00
72721;BME280;60835;50.974;10.322;2023-02-22T03:46:16;96818.78;;;7.90;100.00
72721;BME280;60835;50.974;10.322;2023-02-22T03:51:34;96822.41;;;7.89;100.00
72721;BME280;60835;50.974;10.322;2023-02-22T03:54:02;96835.38;;;7.68;100.00
72721;BME280;60835;50.974;10.322;2023-02-22T03:56:32;96838.09;;;7.60;100.00
72721;BME280;60835;50.974;10.322;2023-02-22T03:59:06;96840.09;;;7.50;100.00
72721;BME280;60835;50.974;10.322;2023-02-22T04:01:33;96823.03;;;7.46;100.00
72721;BME280;60835;50.974;10.322;2023-02-22T04:04:00;96792.69;;;7.35;100.00
72721;BME280;60835;50.974;10.322;2023-02-22T04:06:28;96794.19;;;7.29;100.00
72721;BME280;60835;50.974;10.322;2023-02-22T04:08:55;96762.00;;;7.27;100.00
72721;BME280;60835;50.974;10.322;2023-02-22T04:11:21;96727.03;;;7.19;100.00
72721;BME280;60835;50.974;10.322;2023-02-22T04:13:48;96699.63;;;7.13;100.00
72721;BME280;60835;50.974;10.322;2023-02-22T04:16:15;96665.72;;;7.18;100.00
72721;BME280;60835;50.974;10.322;2023-02-22T04:18:41;96621.66;;;7.20;100.00
72721;BME280;60835;50.974;10.322;2023-02-22T04:21:08;96582.50;;;7.25;100.00
72721;BME280;60835;50.974;10.322;2023-02-22T04:23:34;96553.50;;;7.33;100.00
72721;BME280;60835;50.974;10.322;2023-02-22T04:26:01;96531.66;;;7.33;100.00
72721;BME280;60835;50.974;10.322;2023-02-22T04:28:28;96510.78;;;7.31;100.00
72721;BME280;60835;50.974;10.322;2023-02-22T04:30:55;96498.34;;;7.25;100.00
72721;BME280;60835;50.974;10.322;2023-02-22T04:33:21;96485.47;;;7.16;100.00
72721;BME280;60835;50.974;10.322;2023-02-22T04:35:48;96457.91;;;7.26;100.00
72721;BME280;60835;50.974;10.322;2023-02-22T04:38:14;96429.69;;;7.35;100.00
72721;BME280;60835;50.974;10.322;2023-02-22T04:40:41;96392.41;;;7.46;100.00
72721;BME280;60835;50.974;10.322;2023-02-22T04:43:08;96391.13;;;7.57;100.00
72721;BME280;60835;50.974;10.322;2023-02-22T04:45:34;96420.72;;;7.29;100.00
72721;BME280;60835;50.974;10.322;2023-02-22T04:48:01;96422.81;;;7.19;100.00
72721;BME280;60835;50.974;10.322;2023-02-22T04:50:28;96432.06;;;7.01;100.00
72721;BME280;60835;50.974;10.322;2023-02-22T04:52:54;96410.22;;;7.00;100.00
72721;BME280;60835;50.974;10.322;2023-02-22T04:55:21;96394.72;;;7.05;100.00
72721;BME280;60835;50.974;10.322;2023-02-22T04:57:48;96369.78;;;7.01;100.00
72721;BME280;60835;50.974;10.322;2023-02-22T05:00:16;96359.63;;;6.98;100.00
72721;BME280;60835;50.974;10.322;2023-02-22T05:02:44;96339.97;;;6.94;100.00
72721;BME280;60835;50.974;10.322;2023-02-22T05:05:19;96312.69;;;6.95;100.00
72721;BME280;60835;50.974;10.322;2023-02-22T05:07:47;96305.19;;;6.78;100.00
72721;BME280;60835;50.974;10.322;2023-02-22T05:10:14;96279.59;;;6.86;100.00
72721;BME280;60835;50.974;10.322;2023-02-22T05:12:43;96272.84;;;6.77;100.00
72721;BME280;60835;50.974;10.322;2023-02-22T05:15:13;96266.22;;;6.66;100.00
72721;BME280;60835;50.974;10.322;2023-02-22T05:17:40;96231.63;;;6.63;100.00
72721;BME280;60835;50.974;10.322;2023-02-22T05:20:09;96204.53;;;6.77;100.00
72721;BME280;60835;50.974;10.322;2023-02-22T05:22:45;96191.84;;;6.66;100.00
72721;BME280;60835;50.974;10.322;2023-02-22T05:25:11;96161.56;;;6.70;100.00
72721;BME280;60835;50.974;10.322;2023-02-22T05:27:37;96133.31;;;6.72;100.00
72721;BME280;60835;50.974;10.322;2023-02-22T05:30:04;96146.94;;;6.61;100.00
72721;BME280;60835;50.974;10.322;2023-02-22T05:32:34;96120.47;;;6.62;100.00
72721;BME280;60835;50.974;10.322;2023-02-22T05:35:01;96121.25;;;6.42;100.00
72721;BME280;60835;50.974;10.322;2023-02-22T05:37:27;96092.72;;;6.53;100.00
72721;BME280;60835;50.974;10.322;2023-02-22T05:39:54;96090.38;;;6.44;100.00
72721;BME280;60835;50.974;10.322;2023-02-22T05:42:20;96078.63;;;6.40;100.00
72721;BME280;60835;50.974;10.322;2023-02-22T05:44:48;96060.97;;;6.34;100.00
72721;BME280;60835;50.974;10.322;2023-02-22T05:47:15;96022.03;;;6.58;100.00
72721;BME280;60835;50.974;10.322;2023-02-22T05:49:41;96044.09;;;6.22;100.00
72721;BME280;60835;50.974;10.322;2023-02-22T05:52:08;96022.19;;;6.14;100.00
72721;BME280;60835;50.974;10.322;2023-02-22T05:54:35;95999.81;;;6.19;100.00
72721;BME280;60835;50.974;10.322;2023-02-22T05:57:02;95964.03;;;5.96;100.00
72721;BME280;60835;50.974;10.322;2023-02-22T05:59:29;97196.19;;;6.18;100.00
72721;BME280;60835;50.974;10.322;2023-02-22T06:01:56;97173.72;;;6.24;100.00
72721;BME280;60835;50.974;10.322;2023-02-22T06:04:22;97157.19;;;6.31;100.00
72721;BME280;60835;50.974;10.322;2023-02-22T06:06:49;97138.94;;;6.22;100.00
72721;BME280;60835;50.974;10.322;2023-02-22T06:09:16;97121.72;;;6.27;100.00
72721;BME280;60835;50.974;10.322;2023-02-22T06:11:43;97114.66;;;6.28;100.00
72721;BME280;60835;50.974;10.322;2023-02-22T06:14:10;97089.38;;;6.27;100.00
72721;BME280;60835;50.974;10.322;2023-02-22T06:16:36;97073.63;;;6.27;100.00
72721;BME280;60835;50.974;10.322;2023-02-22T06:19:03;97071.03;;;6.35;100.00
72721;BME280;60835;50.974;10.322;2023-02-22T06:21:29;97040.44;;;6.18;100.00
72721;BME280;60835;50.974;10.322;2023-02-22T06:23:56;97044.91;;;6.33;100.00
72721;BME280;60835;50.974;10.322;2023-02-22T06:26:22;97028.50;;;6.31;100.00
72721;BME280;60835;50.974;10.322;2023-02-22T06:28:49;97037.50;;;6.29;100.00
72721;BME280;60835;50.974;10.322;2023-02-22T06:31:15;97038.50;;;6.28;100.00
72721;BME280;60835;50.974;10.322;2023-02-22T06:33:42;97038.81;;;6.17;100.00
72721;BME280;60835;50.974;10.322;2023-02-22T06:36:09;97031.94;;;6.24;100.00
72721;BME280;60835;50.974;10.322;2023-02-22T06:38:35;97048.28;;;6.01;100.00
72721;BME280;60835;50.974;10.322;2023-02-22T06:41:02;97028.97;;;6.19;100.00
72721;BME280;60835;50.974;10.322;2023-02-22T06:43:28;97033.53;;;6.08;100.00
72721;BME280;60835;50.974;10.322;2023-02-22T06:45:55;97031.56;;;6.10;100.00
72721;BME280;60835;50.974;10.322;2023-02-22T06:48:21;97030.72;;;6.02;100.00
72721;BME280;60835;50.974;10.322;2023-02-22T06:50:48;97026.00;;;6.05;100.00
72721;BME280;60835;50.974;10.322;2023-02-22T06:53:15;97013.03;;;6.12;100.00
72721;BME280;60835;50.974;10.322;2023-02-22T06:55:41;97030.88;;;5.92;100.00
72721;BME280;60835;50.974;10.322;2023-02-22T06:58:08;96994.34;;;5.73;100.00
72721;BME280;60835;50.974;10.322;2023-02-22T07:00:34;97016.44;;;5.96;100.00
72721;BME280;60835;50.974;10.322;2023-02-22T07:03:02;97005.28;;;5.94;100.00
72721;BME280;60835;50.974;10.322;2023-02-22T07:05:29;96996.75;;;5.92;100.00
72721;BME280;60835;50.974;10.322;2023-02-22T07:08:03;96992.31;;;5.85;100.00
72721;BME280;60835;50.974;10.322;2023-02-22T07:10:30;96997.41;;;5.94;100.00
72721;BME280;60835;50.974;10.322;2023-02-22T07:12:59;96987.88;;;5.93;100.00
72721;BME280;60835;50.974;10.322;2023-02-22T07:15:29;96940.97;;;5.90;100.00
72721;BME280;60835;50.974;10.322;2023-02-22T07:17:56;96904.81;;;5.68;100.00
72721;BME280;60835;50.974;10.322;2023-02-22T07:20:23;96938.53;;;6.05;100.00
72721;BME280;60835;50.974;10.322;2023-02-22T07:22:50;96941.13;;;5.89;100.00
72721;BME280;60835;50.974;10.322;2023-02-22T07:25:17;96889.75;;;5.78;100.00
72721;BME280;60835;50.974;10.322;2023-02-22T07:27:45;96883.31;;;5.65;100.00
72721;BME280;60835;50.974;10.322;2023-02-22T07:30:23;96890.78;;;6.01;100.00
72721;BME280;60835;50.974;10.322;2023-02-22T07:32:52;96896.38;;;5.90;100.00
72721;BME280;60835;50.974;10.322;2023-02-22T07:35:36;96888.81;;;5.87;100.00
72721;BME280;60835;50.974;10.322;2023-02-22T07:38:04;96851.41;;;6.09;100.00
72721;BME280;60835;50.974;10.322;2023-02-22T07:40:31;96868.28;;;5.91;100.00
72721;BME280;60835;50.974;10.322;2023-02-22T07:43:04;96840.91;;;6.09;100.00
72721;BME280;60835;50.974;10.322;2023-02-22T07:45:33;96845.69;;;5.90;100.00
72721;BME280;60835;50.974;10.322;2023-02-22T07:48:02;96871.69;;;5.83;100.00
72721;BME280;60835;50.974;10.322;2023-02-22T07:50:32;96867.66;;;6.05;100.00
72721;BME280;60835;50.974;10.322;2023-02-22T07:53:03;96845.47;;;6.32;100.00
72721;BME280;60835;50.974;10.322;2023-02-22T07:55:31;96836.19;;;6.68;100.00
72721;BME280;60835;50.974;10.322;2023-02-22T07:58:05;96872.25;;;6.43;100.00
72721;BME280;60835;50.974;10.322;2023-02-22T08:00:38;96878.28;;;6.44;100.00
72721;BME280;60835;50.974;10.322;2023-02-22T08:03:08;96913.09;;;6.05;100.00
72721;BME280;60835;50.974;10.322;2023-02-22T08:05:37;96901.59;;;6.14;100.00
72721;BME280;60835;50.974;10.322;2023-02-22T08:08:05;96901.25;;;5.93;100.00
72721;BME280;60835;50.974;10.322;2023-02-22T08:10:33;96880.78;;;6.05;100.00
72721;BME280;60835;50.974;10.322;2023-02-22T08:13:04;96917.22;;;6.24;100.00
72721;BME280;60835;50.974;10.322;2023-02-22T08:15:36;96877.41;;;6.75;100.00
72721;BME280;60835;50.974;10.322;2023-02-22T08:18:09;96881.88;;;6.75;100.00
72721;BME280;60835;50.974;10.322;2023-02-22T08:20:37;96893.59;;;7.03;100.00
72721;BME280;60835;50.974;10.322;2023-02-22T08:23:06;96943.28;;;6.82;100.00
72721;BME280;60835;50.974;10.322;2023-02-22T08:25:33;96946.88;;;6.81;100.00
72721;BME280;60835;50.974;10.322;2023-02-22T08:28:12;96953.91;;;7.05;100.00
72721;BME280;60835;50.974;10.322;2023-02-22T08:30:40;96993.88;;;6.84;100.00
72721;BME280;60835;50.974;10.322;2023-02-22T08:33:11;97024.75;;;6.90;100.00
72721;BME280;60835;50.974;10.322;2023-02-22T08:35:40;97047.91;;;6.79;100.00
72721;BME280;60835;50.974;10.322;2023-02-22T08:38:15;97071.75;;;6.93;100.00
72721;BME280;60835;50.974;10.322;2023-02-22T08:40:46;97111.16;;;6.77;100.00
72721;BME280;60835;50.974;10.322;2023-02-22T08:43:14;97105.56;;;7.04;100.00
72721;BME280;60835;50.974;10.322;2023-02-22T08:45:42;97098.03;;;7.17;100.00
72721;BME280;60835;50.974;10.322;2023-02-22T08:48:10;97160.00;;;7.28;100.00
72721;BME280;60835;50.974;10.322;2023-02-22T08:50:37;97159.50;;;7.16;100.00
72721;BME280;60835;50.974;10.322;2023-02-22T08:53:04;97180.69;;;7.31;100.00
72721;BME280;60835;50.974;10.322;2023-02-22T08:55:35;97220.03;;;7.57;100.00
72721;BME280;60835;50.974;10.322;2023-02-22T08:58:04;97222.81;;;7.55;100.00
72721;BME280;60835;50.974;10.322;2023-02-22T09:00:32;97248.97;;;7.57;100.00
72721;BME280;60835;50.974;10.322;2023-02-22T09:03:00;97309.03;;;7.77;100.00
72721;BME280;60835;50.974;10.322;2023-02-22T09:05:27;97337.31;;;7.75;100.00
72721;BME280;60835;50.974;10.322;2023-02-22T09:07:56;97357.53;;;7.67;100.00
72721;BME280;60835;50.974;10.322;2023-02-22T09:10:29;97416.81;;;7.95;100.00
72721;BME280;60835;50.974;10.322;2023-02-22T09:12:57;97433.50;;;7.54;100.00
72721;BME280;60835;50.974;10.322;2023-02-22T09:15:27;97461.50;;;7.63;100.00
72721;BME280;60835;50.974;10.322;2023-02-22T09:17:54;97496.78;;;7.78;100.00
72721;BME280;60835;50.974;10.322;2023-02-22T09:20:22;97527.25;;;7.88;100.00
72721;BME280;60835;50.974;10.322;2023-02-22T09:22:50;97544.25;;;8.02;100.00
72721;BME280;60835;50.974;10.322;2023-02-22T09:25:18;97566.84;;;7.79;100.00
72721;BME280;60835;50.974;10.322;2023-02-22T09:27:47;97557.38;;;8.36;100.00
72721;BME280;60835;50.974;10.322;2023-02-22T09:30:17;97610.69;;;7.88;100.00
72721;BME280;60835;50.974;10.322;2023-02-22T09:32:44;97584.53;;;7.94;100.00
72721;BME280;60835;50.974;10.322;2023-02-22T09:35:11;97604.16;;;8.34;100.00
72721;BME280;60835;50.974;10.322;2023-02-22T09:37:38;97615.88;;;8.47;100.00
72721;BME280;60835;50.974;10.322;2023-02-22T09:40:05;97594.31;;;8.10;100.00
72721;BME280;60835;50.974;10.322;2023-02-22T09:42:48;97639.72;;;8.30;100.00
72721;BME280;60835;50.974;10.322;2023-02-22T09:45:31;97608.34;;;8.77;100.00
72721;BME280;60835;50.974;10.322;2023-02-22T09:48:05;97609.25;;;8.35;100.00
72721;BME280;60835;50.974;10.322;2023-02-22T09:50:48;97664.44;;;8.37;100.00
72721;BME280;60835;50.974;10.322;2023-02-22T09:53:22;97657.84;;;8.91;100.00
72721;BME280;60835;50.974;10.322;2023-02-22T09:56:04;97625.00;;;9.74;100.00
72721;BME280;60835;50.974;10.322;2023-02-22T09:58:37;97595.59;;;10.32;100.00
72721;BME280;60835;50.974;10.322;2023-02-22T10:01:21;97623.69;;;9.54;100.00
72721;BME280;60835;50.974;10.322;2023-02-22T10:04:11;97613.41;;;10.30;100.00
72721;BME280;60835;50.974;10.322;2023-02-22T10:07:19;97594.34;;;10.04;100.00
72721;BME280;60835;50.974;10.322;2023-02-22T10:09:48;97582.97;;;10.65;100.00
72721;BME280;60835;50.974;10.322;2023-02-22T10:12:28;97616.88;;;10.69;100.00
72721;BME280;60835;50.974;10.322;2023-02-22T10:15:32;97623.19;;;10.60;100.00
72721;BME280;60835;50.974;10.322;2023-02-22T10:18:33;97630.81;;;10.55;100.00
72721;BME280;60835;50.974;10.322;2023-02-22T10:26:49;97647.38;;;11.02;100.00
72721;BME280;60835;50.974;10.322;2023-02-22T10:29:24;97685.25;;;10.72;100.00
72721;BME280;60835;50.974;10.322;2023-02-22T10:31:59;97711.59;;;10.66;100.00
72721;BME280;60835;50.974;10.322;2023-02-22T10:34:37;97722.59;;;10.85;100.00
72721;BME280;60835;50.974;10.322;2023-02-22T10:37:27;97732.22;;;10.78;100.00
72721;BME280;60835;50.974;10.322;2023-02-22T10:40:12;97727.53;;;11.42;100.00
72721;BME280;60835;50.974;10.322;2023-02-22T10:42:43;97713.00;;;11.38;100.00
72721;BME280;60835;50.974;10.322;2023-02-22T10:45:30;97679.47;;;12.05;100.00
72721;BME280;60835;50.974;10.322;2023-02-22T10:48:10;97658.09;;;12.86;100.00
72721;BME280;60835;50.974;10.322;2023-02-22T10:50:39;97644.88;;;13.07;100.00
72721;BME280;60835;50.974;10.322;2023-02-22T10:53:08;97723.88;;;12.91;100.00
72721;BME280;60835;50.974;10.322;2023-02-22T10:56:03;97702.72;;;13.12;100.00
72721;BME280;60835;50.974;10.322;2023-02-22T10:58:24;97764.81;;;12.38;100.00
72721;BME280;60835;50.974;10.322;2023-02-22T11:00:50;97738.66;;;14.20;100.00
72721;BME280;60835;50.974;10.322;2023-02-22T11:03:19;97745.72;;;13.79;100.00
72721;BME280;60835;50.974;10.322;2023-02-22T11:05:47;97782.97;;;13.07;100.00
72721;BME280;60835;50.974;10.322;2023-02-22T11:10:41;97815.41;;;12.95;100.00
72721;BME280;60835;50.974;10.322;2023-02-22T11:13:29;97827.44;;;12.76;100.00
72721;BME280;60835;50.974;10.322;2023-02-22T11:15:59;97830.06;;;13.34;100.00
72721;BME280;60835;50.974;10.322;2023-02-22T11:18:30;97825.59;;;13.71;100.00
72721;BME280;60835;50.974;10.322;2023-02-22T11:21:07;97854.19;;;12.89;100.00
72721;BME280;60835;50.974;10.322;2023-02-22T11:23:37;97869.63;;;12.86;100.00
72721;BME280;60835;50.974;10.322;2023-02-22T11:28:35;97530.78;;;14.30;100.00
72721;BME280;60835;50.974;10.322;2023-02-22T11:31:16;97541.09;;;13.58;100.00
72721;BME280;60835;50.974;10.322;2023-02-22T11:34:02;97468.69;;;15.29;100.00
72721;BME280;60835;50.974;10.322;2023-02-22T11:36:37;97507.63;;;14.84;100.00
72721;BME280;60835;50.974;10.322;2023-02-22T11:39:30;97520.31;;;15.67;100.00
72721;BME280;60835;50.974;10.322;2023-02-22T11:44:45;97496.22;;;16.44;100.00
72721;BME280;60835;50.974;10.322;2023-02-22T11:47:12;97521.63;;;16.60;100.00
72721;BME280;60835;50.974;10.322;2023-02-22T11:49:41;97581.84;;;15.40;100.00
72721;BME280;60835;50.974;10.322;2023-02-22T11:52:23;97565.03;;;15.72;100.00
72721;BME280;60835;50.974;10.322;2023-02-22T12:06:32;97633.50;;;15.98;100.00
72721;BME280;60835;50.974;10.322;2023-02-22T12:19:40;97684.41;;;16.93;100.00
72721;BME280;60835;50.974;10.322;2023-02-22T12:22:10;97710.88;;;15.84;100.00
72721;BME280;60835;50.974;10.322;2023-02-22T12:24:45;97717.88;;;15.86;100.00
72721;BME280;60835;50.974;10.322;2023-02-22T12:27:25;97733.47;;;16.02;100.00
72721;BME280;60835;50.974;10.322;2023-02-22T12:30:11;97707.16;;;17.40;100.00
72721;BME280;60835;50.974;10.322;2023-02-22T12:32:42;97703.72;;;17.95;100.00
72721;BME280;60835;50.974;10.322;2023-02-22T12:35:18;97689.50;;;18.19;100.00
72721;BME280;60835;50.974;10.322;2023-02-22T12:43:31;97756.66;;;16.14;100.00
72721;BME280;60835;50.974;10.322;2023-02-22T12:46:12;97717.38;;;18.37;100.00
72721;BME280;60835;50.974;10.322;2023-02-22T12:49:16;97732.41;;;17.57;100.00
72721;BME280;60835;50.974;10.322;2023-02-22T12:57:43;97758.97;;;16.94;100.00
72721;BME280;60835;50.974;10.322;2023-02-22T13:00:20;97702.69;;;17.96;100.00
72721;BME280;60835;50.974;10.322;2023-02-22T13:03:01;97747.81;;;16.60;100.00
72721;BME280;60835;50.974;10.322;2023-02-22T13:05:36;97755.66;;;17.88;100.00
72721;BME280;60835;50.974;10.322;2023-02-22T13:08:28;97691.97;;;18.82;100.00
72721;BME280;60835;50.974;10.322;2023-02-22T13:11:20;97677.06;;;19.34;100.00
72721;BME280;60835;50.974;10.322;2023-02-22T13:13:56;97694.81;;;18.69;100.00
72721;BME280;60835;50.974;10.322;2023-02-22T13:19:33;97659.31;;;18.55;100.00
72721;BME280;60835;50.974;10.322;2023-02-22T13:22:11;97715.75;;;17.86;100.00
72721;BME280;60835;50.974;10.322;2023-02-22T13:27:25;97705.66;;;18.92;100.00
72721;BME280;60835;50.974;10.322;2023-02-22T13:29:57;97731.19;;;17.53;100.00
72721;BME280;60835;50.974;10.322;2023-02-22T13:32:44;97736.34;;;17.03;100.00
72721;BME280;60835;50.974;10.322;2023-02-22T13:54:18;97693.47;;;17.92;100.00
72721;BME280;60835;50.974;10.322;2023-02-22T13:56:48;97728.16;;;16.98;100.00
72721;BME280;60835;50.974;10.322;2023-02-22T13:59:35;97761.53;;;16.63;100.00
72721;BME280;60835;50.974;10.322;2023-02-22T14:02:03;97742.94;;;17.45;100.00
72721;BME280;60835;50.974;10.322;2023-02-22T14:04:32;97733.25;;;17.82;100.00
72721;BME280;60835;50.974;10.322;2023-02-22T14:07:35;97698.66;;;17.56;100.00
72721;BME280;60835;50.974;10.322;2023-02-22T14:15:16;97702.06;;;17.32;100.00
72721;BME280;60835;50.974;10.322;2023-02-22T14:20:32;97729.09;;;16.47;100.00
72721;BME280;60835;50.974;10.322;2023-02-22T14:25:50;97759.13;;;16.22;100.00
72721;BME280;60835;50.974;10.322;2023-02-22T14:31:09;97787.22;;;16.51;100.00
72721;BME280;60835;50.974;10.322;2023-02-22T14:36:19;97798.50;;;15.88;100.00
72721;BME280;60835;50.974;10.322;2023-02-22T14:38:50;97812.75;;;15.47;100.00
72721;BME280;60835;50.974;10.322;2023-02-22T14:41:26;97821.88;;;15.72;100.00
72721;BME280;60835;50.974;10.322;2023-02-22T14:43:55;97806.31;;;15.96;100.00
72721;BME280;60835;50.974;10.322;2023-02-22T14:46:26;97793.78;;;15.90;100.00
72721;BME280;60835;50.974;10.322;2023-02-22T14:49:02;97785.97;;;16.08;100.00
72721;BME280;60835;50.974;10.322;2023-02-22T14:51:41;97810.59;;;15.97;100.00
72721;BME280;60835;50.974;10.322;2023-02-22T14:54:27;97803.19;;;15.72;100.00
72721;BME280;60835;50.974;10.322;2023-02-22T14:57:18;97809.94;;;15.62;100.00
72721;BME280;60835;50.974;10.322;2023-02-22T15:03:00;97828.97;;;15.52;100.00
72721;BME280;60835;50.974;10.322;2023-02-22T15:05:33;97837.66;;;15.33;100.00
72721;BME280;60835;50.974;10.322;2023-02-22T15:08:02;97844.69;;;15.41;100.00
72721;BME280;60835;50.974;10.322;2023-02-22T15:10:43;97846.44;;;15.20;100.00